Morehouse, MO (63868)

9:58 PM CDT on July 28, 2016 (GMT -0500)
SEMO Electric Coop | | Change Station

Elev 338 ft 36.85 °N, 89.58 °W | Updated 7 minutes ago

Light Rain
Light Rain
76.5 °F
Feels Like 77 °F
N
2.0
Wind Variable Wind from SW
Gusts 6.0 mph

Today
High -- | Low -- °F
--% Chance of Precip.
Yesterday
High -- | Low -- °F
Precip. -- in
Pressure 29.89 in
Visibility 10.0 miles
Clouds Mostly Cloudy 10000 ft
Heat Index 77 °F
Dew Point 73 °F
Humidity 90%
Rainfall 0.00 in
Snow Depth Not available.
6:01 AM 8:08 PM
Waning Crescent, 26% visible
METAR KCGI 290253Z AUTO 24008KT 10SM -RA BKN100 23/22 A2990 RMK AO2 LTG DSNT N AND NW RAB32 SLP121 P0004 60004 T02330217 50006
Pressure 29.89 in
Visibility 10.0 miles
Clouds Mostly Cloudy 10000 ft
Heat Index 77 °F
Dew Point 73 °F
Humidity 90%
Rainfall 0.00 in
Snow Depth Not available.
6:01 AM 8:08 PM
Waning Crescent, 26% visible
METAR KCGI 290253Z AUTO 24008KT 10SM -RA BKN100 23/22 A2990 RMK AO2 LTG DSNT N AND NW RAB32 SLP121 P0004 60004 T02330217 50006

10-Day Weather Forecast

Almanac

Astronomy

Jul. 28, 2016 Rise Set
Actual Time
Civil Twilight
Nautical Twilight
Astronomical Twilight
Moon
Length of Visible Light
Length of Day
Tomorrow will be .
, % of the Moon is Illuminated

Today's Extremes

State Highs State Lows

Community

WunderPhotos

Upload Photos

1,928,274 photos uploaded!

WunderBlog® & News

Nearby

Air Quality

  Air Quality AQ Index Pollutant
Not available.

Snow Depth

Station Depth Elevation

Earthquake Activity

City Distance Mag. Time & Date
Minimum magnitude displayed is 2.5.

Coastal Water Temperatures

Place Temperature

Stations

Nearby Weather Stations

Station Location Temp. Windchill Dew Point Humidity Wind Precip. Elev Updated Type
                   

Watches & Warnings

There are currently no watches in effect.